Time;durP1;ratioP1;P1;durP2;ratioP2;P2;SDS_P1;SDS_P2;PMS_P1;PMS_P2;Temp;Humidity;BMP_temperature;BMP_pressure;BME280_temperature;BME280_humidity;BME280_pressure;Samples;Min_cycle;Max_cycle;Signal;HPM_P1;HPM_P2
2022/05/27 00:00:41;;;;;;;2.20;1.10;;;13.30;99.90;;;;;;6189336;23;20016;-80
2022/05/27 00:03:08;;;;;;;2.40;1.30;;;13.30;99.90;;;;;;6206140;23;20016;-81
2022/05/27 00:05:33;;;;;;;2.92;1.13;;;13.30;99.90;;;;;;6245483;23;20015;-80
2022/05/27 00:07:59;;;;;;;3.08;1.20;;;13.30;99.90;;;;;;6245100;23;20073;-81
2022/05/27 00:10:25;;;;;;;3.92;1.40;;;13.30;99.90;;;;;;6218712;23;20012;-80
2022/05/27 00:12:50;;;;;;;3.00;1.25;;;13.30;99.90;;;;;;6244400;22;20035;-81
2022/05/27 00:15:16;;;;;;;5.25;1.60;;;13.30;99.90;;;;;;6244644;23;20043;-81
2022/05/27 00:17:41;;;;;;;3.38;1.48;;;13.30;99.90;;;;;;6220149;23;20236;-81
2022/05/27 00:20:08;;;;;;;3.30;1.48;;;13.30;99.90;;;;;;6244293;23;20016;-81
2022/05/27 00:22:33;;;;;;;3.60;1.58;;;13.30;99.90;;;;;;6219453;23;20054;-81
2022/05/27 00:25:02;;;;;;;2.97;1.42;;;13.30;99.90;;;;;;6244059;23;20051;-81
2022/05/27 00:27:28;;;;;;;7.45;1.50;;;13.30;99.90;;;;;;6243780;23;20465;-81
2022/05/27 00:29:54;;;;;;;3.03;1.33;;;13.30;99.90;;;;;;6243973;23;20097;-79
2022/05/27 00:32:19;;;;;;;3.22;1.30;;;13.30;99.90;;;;;;6244604;22;20020;-79
2022/05/27 00:34:45;;;;;;;4.68;1.35;;;13.30;99.90;;;;;;6218307;23;20393;-79
2022/05/27 00:37:11;;;;;;;5.68;1.83;;;13.30;99.90;;;;;;6218337;23;20008;-79
2022/05/27 00:39:38;;;;;;;1.90;1.38;;;13.30;99.90;;;;;;6243200;23;20353;-79
2022/05/27 00:42:05;;;;;;;6.38;1.65;;;13.30;99.90;;;;;;6242969;22;20016;-79
2022/05/27 00:44:30;;;;;;;5.53;1.95;;;13.30;99.90;;;;;;6244405;22;20071;-79
2022/05/27 00:47:03;;;;;;;2.25;1.42;;;13.30;99.90;;;;;;6242517;23;20039;-79
2022/05/27 00:49:29;;;;;;;5.40;1.75;;;13.30;99.90;;;;;;6243200;23;20019;-79
2022/05/27 00:52:07;;;;;;;4.18;1.70;;;13.30;99.90;;;;;;6243134;22;20070;-79
2022/05/27 00:54:34;;;;;;;5.68;2.15;;;13.30;99.90;;;;;;6243274;23;20509;-79
2022/05/27 00:57:12;;;;;;;4.78;1.70;;;13.30;99.90;;;;;;6243211;23;20082;-79
2022/05/27 00:59:48;;;;;;;8.68;1.88;;;13.30;99.90;;;;;;6217940;23;20016;-79
2022/05/27 01:02:13;;;;;;;5.22;1.92;;;13.30;99.90;;;;;;6217774;23;20035;-79
2022/05/27 01:04:40;;;;;;;4.32;1.65;;;13.30;99.90;;;;;;6217873;23;20445;-79
2022/05/27 01:07:06;;;;;;;4.38;1.73;;;13.30;99.90;;;;;;6243263;23;20050;-79
2022/05/27 01:09:33;;;;;;;4.22;2.00;;;13.40;99.90;;;;;;6242907;23;20027;-79
2022/05/27 01:12:21;;;;;;;5.75;1.85;;;13.40;99.90;;;;;;6217763;23;20352;-79
2022/05/27 01:14:56;;;;;;;5.28;2.00;;;13.50;99.90;;;;;;6243254;23;20092;-79
2022/05/27 01:17:33;;;;;;;9.07;2.85;;;13.40;99.90;;;;;;6218074;23;20012;-79
2022/05/27 01:20:21;;;;;;;12.27;2.42;;;13.40;99.90;;;;;;6242984;23;20383;-78
2022/05/27 01:23:09;;;;;;;7.07;2.40;;;13.40;99.90;;;;;;6242896;22;20012;-79
2022/05/27 01:25:58;;;;;;;3.85;2.35;;;13.40;99.90;;;;;;6243433;23;20061;-79
2022/05/27 01:28:37;;;;;;;6.50;2.60;;;13.40;99.90;;;;;;6243306;23;20083;-79
2022/05/27 01:31:22;;;;;;;8.07;2.90;;;13.30;99.90;;;;;;6243219;23;20008;-79
2022/05/27 01:34:03;;;;;;;12.82;3.63;;;13.40;99.90;;;;;;6243041;23;20017;-79
2022/05/27 01:37:00;;;;;;;7.35;3.05;;;13.40;99.90;;;;;;6243106;23;20008;-79
2022/05/27 01:39:32;;;;;;;6.47;2.92;;;13.40;99.90;;;;;;6235670;23;20018;-79
2022/05/27 01:42:20;;;;;;;8.82;2.75;;;13.50;99.90;;;;;;6242609;22;20295;-79
2022/05/27 01:44:53;;;;;;;8.20;3.00;;;13.50;99.90;;;;;;6217608;23;20100;-79
2022/05/27 01:47:59;;;;;;;10.85;3.35;;;13.40;99.90;;;;;;6243540;23;20016;-79
2022/05/27 01:50:28;;;;;;;7.90;3.20;;;13.40;99.90;;;;;;6244355;22;20015;-79
2022/05/27 01:53:05;;;;;;;8.55;2.95;;;13.30;99.90;;;;;;6243095;22;20016;-79
2022/05/27 01:55:55;;;;;;;8.60;3.28;;;13.30;99.90;;;;;;6242481;23;20410;-79
2022/05/27 01:58:33;;;;;;;7.35;2.80;;;13.30;99.90;;;;;;6218740;23;20012;-79
2022/05/27 02:00:59;;;;;;;9.52;3.25;;;13.30;99.90;;;;;;6244744;23;20015;-79
2022/05/27 02:03:36;;;;;;;7.13;2.53;;;13.20;99.90;;;;;;6244277;22;20012;-78
2022/05/27 02:06:13;;;;;;;7.45;3.17;;;13.10;99.90;;;;;;6246460;22;20342;-79
2022/05/27 02:08:51;;;;;;;7.78;3.00;;;13.10;99.90;;;;;;6246266;22;20038;-79
2022/05/27 02:11:22;;;;;;;12.07;3.95;;;13.00;99.90;;;;;;6244200;22;20039;-79
2022/05/27 02:14:31;;;;;;;6.60;2.70;;;13.00;99.90;;;;;;6248048;23;20020;-81
2022/05/27 02:17:05;;;;;;;10.45;3.25;;;13.00;99.90;;;;;;6246107;23;20012;-80
2022/05/27 02:19:36;;;;;;;9.82;3.17;;;12.90;99.90;;;;;;6221695;23;20057;-80
2022/05/27 02:22:28;;;;;;;11.45;2.80;;;12.90;99.90;;;;;;6222098;23;20082;-80
2022/05/27 02:25:02;;;;;;;13.23;3.28;;;12.90;99.90;;;;;;6247859;23;20396;-80
2022/05/27 02:27:35;;;;;;;12.05;3.00;;;12.90;99.90;;;;;;6247573;23;20016;-80
2022/05/27 02:30:04;;;;;;;9.43;2.72;;;12.80;99.90;;;;;;6247009;23;20051;-80
2022/05/27 02:32:38;;;;;;;8.10;2.35;;;12.70;99.90;;;;;;6246785;22;20016;-80
2022/05/27 02:35:12;;;;;;;7.80;2.33;;;12.70;99.90;;;;;;6248621;23;20019;-80
2022/05/27 02:37:47;;;;;;;9.27;2.97;;;12.70;99.90;;;;;;6221847;23;20012;-80
2022/05/27 02:40:33;;;;;;;8.55;2.85;;;12.70;99.90;;;;;;6246827;23;20015;-80
2022/05/27 02:43:04;;;;;;;9.38;3.42;;;12.60;99.90;;;;;;6222895;23;20016;-80
2022/05/27 02:45:54;;;;;;;12.93;3.07;;;12.60;99.90;;;;;;6245478;23;20012;-80
2022/05/27 02:48:38;;;;;;;16.42;4.55;;;12.60;99.90;;;;;;6246377;23;20317;-79
2022/05/27 02:51:15;;;;;;;13.07;3.58;;;12.60;99.90;;;;;;6246600;23;20020;-80
2022/05/27 02:54:31;;;;;;;11.27;2.75;;;12.50;99.90;;;;;;6246537;23;20036;-80
2022/05/27 02:57:17;;;;;;;12.65;2.78;;;12.50;99.90;;;;;;6223798;23;20020;-79
2022/05/27 02:59:43;;;;;;;16.33;2.50;;;12.50;99.90;;;;;;6262524;22;20019;-80
2022/05/27 03:02:12;;;;;;;11.82;2.67;;;12.40;99.90;;;;;;6244825;22;20023;-80
2022/05/27 03:04:41;;;;;;;7.57;2.47;;;12.40;99.90;;;;;;6245349;23;20063;-80
2022/05/27 03:07:25;;;;;;;12.38;2.92;;;12.50;99.90;;;;;;6245453;23;20030;-80
2022/05/27 03:10:20;;;;;;;12.50;2.58;;;12.40;99.90;;;;;;6219808;23;20016;-80
2022/05/27 03:12:55;;;;;;;8.80;2.75;;;12.40;99.90;;;;;;6244515;22;20083;-80
2022/05/27 03:15:36;;;;;;;11.50;2.30;;;12.40;99.90;;;;;;6244445;23;20016;-80
2022/05/27 03:18:37;;;;;;;16.65;3.53;;;12.40;99.90;;;;;;6220038;23;20014;-80
2022/05/27 03:21:12;;;;;;;6.20;2.70;;;12.40;99.90;;;;;;6208962;23;20023;-80
2022/05/27 03:24:04;;;;;;;10.15;2.30;;;12.40;99.90;;;;;;6244640;22;20125;-80
2022/05/27 03:26:55;;;;;;;8.02;2.38;;;12.40;99.90;;;;;;6219410;23;20016;-79
2022/05/27 03:29:46;;;;;;;11.05;3.20;;;12.40;99.90;;;;;;6245557;22;20442;-80
2022/05/27 03:32:27;;;;;;;9.90;2.60;;;12.40;99.90;;;;;;6218618;23;20489;-80
2022/05/27 03:35:21;;;;;;;8.70;2.55;;;12.50;99.90;;;;;;6245400;23;20012;-80
2022/05/27 03:38:12;;;;;;;4.43;2.10;;;12.50;99.90;;;;;;6244644;23;20026;-80
2022/05/27 03:41:01;;;;;;;11.80;2.25;;;12.60;99.90;;;;;;6245683;23;20015;-80
2022/05/27 03:43:28;;;;;;;14.18;3.28;;;12.50;99.90;;;;;;6232093;23;20042;-80
2022/05/27 03:45:56;;;;;;;8.95;2.15;;;12.50;99.90;;;;;;6246354;23;20012;-80
2022/05/27 03:48:24;;;;;;;12.77;3.53;;;12.60;99.90;;;;;;6245303;23;20018;-80
2022/05/27 03:50:53;;;;;;;5.80;2.30;;;12.60;99.90;;;;;;6245751;23;20042;-80
2022/05/27 03:53:19;;;;;;;10.30;2.80;;;12.70;99.90;;;;;;6244483;22;20031;-80
2022/05/27 03:55:44;;;;;;;10.88;2.30;;;12.70;99.90;;;;;;6218644;23;20012;-80
2022/05/27 03:58:17;;;;;;;17.88;2.60;;;12.60;99.90;;;;;;6243637;23;20087;-79
2022/05/27 04:00:43;;;;;;;17.60;3.00;;;12.60;99.90;;;;;;6245127;22;20070;-80
2022/05/27 04:03:12;;;;;;;11.38;2.08;;;12.60;99.90;;;;;;6243662;22;20020;-79
2022/05/27 04:05:38;;;;;;;7.43;2.60;;;12.60;99.90;;;;;;6219968;23;20027;-79
2022/05/27 04:08:05;;;;;;;9.95;2.58;;;12.60;99.90;;;;;;6219373;23;20103;-80
2022/05/27 04:10:30;;;;;;;17.13;2.47;;;12.60;99.90;;;;;;6244349;23;20074;-80
2022/05/27 04:12:56;;;;;;;13.98;3.05;;;12.60;99.90;;;;;;6243912;22;20019;-80
2022/05/27 04:15:22;;;;;;;16.52;2.67;;;12.60;99.90;;;;;;6244850;23;20019;-80
2022/05/27 04:17:48;;;;;;;7.45;1.80;;;12.60;99.90;;;;;;6245683;23;20099;-79
2022/05/27 04:20:16;;;;;;;12.80;2.25;;;12.60;99.90;;;;;;6245599;23;20507;-80
2022/05/27 04:22:42;;;;;;;11.00;2.47;;;12.70;99.90;;;;;;6245311;22;20023;-80
2022/05/27 04:25:09;;;;;;;7.60;1.85;;;12.70;99.90;;;;;;6245210;23;20016;-80
2022/05/27 04:27:35;;;;;;;6.85;1.98;;;12.70;99.90;;;;;;6244143;23;20016;-78
2022/05/27 04:30:02;;;;;;;12.90;2.58;;;12.70;99.90;;;;;;6243472;23;20012;-78
2022/05/27 04:32:27;;;;;;;10.80;2.30;;;12.80;99.90;;;;;;6217659;23;20016;-79
2022/05/27 04:34:54;;;;;;;12.38;2.33;;;12.70;99.90;;;;;;6244854;22;20012;-79
2022/05/27 04:37:21;;;;;;;6.78;1.92;;;12.80;99.90;;;;;;6243022;23;20453;-78
2022/05/27 04:39:47;;;;;;;8.77;2.10;;;12.80;99.90;;;;;;6243042;23;20019;-78
2022/05/27 04:42:13;;;;;;;11.50;2.90;;;12.80;99.90;;;;;;6242913;22;20020;-79
2022/05/27 04:44:39;;;;;;;14.45;2.25;;;12.80;99.90;;;;;;6243388;23;20012;-79
2022/05/27 04:47:05;;;;;;;9.52;2.17;;;12.80;99.90;;;;;;6244660;22;20016;-79
2022/05/27 04:52:16;;;;;;;11.90;2.65;;;12.80;99.90;;;;;;6242918;22;20026;-79
2022/05/27 04:54:42;;;;;;;9.75;1.75;;;12.80;99.90;;;;;;6242976;23;20039;-79
2022/05/27 04:57:12;;;;;;;15.57;2.53;;;12.80;99.90;;;;;;6219173;23;20660;-79
2022/05/27 04:59:39;;;;;;;10.48;1.92;;;12.80;99.90;;;;;;6244045;23;20012;-80
2022/05/27 05:02:05;;;;;;;12.23;1.67;;;12.80;99.90;;;;;;6246145;22;20066;-80
2022/05/27 05:04:30;;;;;;;8.18;2.28;;;12.80;99.90;;;;;;6221243;23;20388;-80
2022/05/27 05:07:02;;;;;;;13.88;2.40;;;12.80;99.90;;;;;;6247715;23;20392;-81
2022/05/27 05:09:28;;;;;;;6.60;1.90;;;12.90;99.90;;;;;;6248046;23;20016;-80
2022/05/27 05:11:54;;;;;;;11.38;2.35;;;13.00;99.90;;;;;;6247371;22;20339;-80
2022/05/27 05:14:19;;;;;;;7.55;1.75;;;13.20;99.90;;;;;;6221464;23;20012;-80
2022/05/27 05:16:45;;;;;;;14.20;3.25;;;13.50;99.90;;;;;;6248647;23;20083;-80
2022/05/27 05:19:10;;;;;;;13.80;2.60;;;13.80;99.90;;;;;;6247360;23;20061;-81
2022/05/27 05:21:36;;;;;;;6.68;1.42;;;14.10;99.90;;;;;;6220562;22;20012;-80
2022/05/27 05:24:03;;;;;;;15.20;2.35;;;14.10;99.90;;;;;;6247414;23;20008;-80
2022/05/27 05:26:28;;;;;;;12.63;1.83;;;14.30;99.90;;;;;;6246613;23;20008;-80
2022/05/27 05:28:54;;;;;;;10.82;1.92;;;14.30;99.90;;;;;;6246516;23;20054;-79
2022/05/27 05:31:19;;;;;;;12.90;2.22;;;14.40;99.90;;;;;;6247116;22;20012;-80
2022/05/27 05:33:45;;;;;;;13.18;2.00;;;14.90;99.90;;;;;;6246329;23;20012;-79
2022/05/27 05:36:11;;;;;;;10.30;2.00;;;15.10;99.90;;;;;;6245221;23;20065;-80
2022/05/27 05:38:37;;;;;;;8.85;2.47;;;15.20;99.90;;;;;;6245541;23;20012;-80
2022/05/27 05:41:03;;;;;;;10.65;2.55;;;15.10;99.90;;;;;;6245489;23;20505;-80
2022/05/27 05:43:28;;;;;;;10.95;2.65;;;15.30;99.90;;;;;;6245255;22;20019;-81
2022/05/27 05:45:54;;;;;;;8.15;1.83;;;15.60;99.90;;;;;;6244705;23;20446;-81
2022/05/27 05:48:19;;;;;;;13.93;2.00;;;16.00;99.90;;;;;;6245172;23;20015;-80
2022/05/27 05:50:45;;;;;;;9.27;2.10;;;16.30;99.90;;;;;;6245682;23;20008;-80
2022/05/27 05:53:10;;;;;;;7.03;1.55;;;16.50;99.90;;;;;;6251774;22;20020;-80
2022/05/27 05:55:37;;;;;;;12.00;2.22;;;16.90;99.90;;;;;;6246292;23;20012;-81
2022/05/27 05:58:03;;;;;;;9.23;2.03;;;17.20;99.90;;;;;;6245256;23;20062;-81
2022/05/27 06:00:29;;;;;;;12.43;1.52;;;17.60;99.90;;;;;;6244828;23;20009;-80
2022/05/27 06:02:55;;;;;;;11.18;2.17;;;17.80;99.90;;;;;;6245078;22;20016;-79
2022/05/27 06:05:22;;;;;;;9.80;2.17;;;18.10;99.90;;;;;;6244619;23;20074;-79
2022/05/27 06:07:47;;;;;;;8.23;1.58;;;18.40;99.90;;;;;;6244892;23;20495;-80
2022/05/27 06:10:15;;;;;;;10.00;2.00;;;18.60;99.90;;;;;;6244238;23;20016;-80
2022/05/27 06:12:41;;;;;;;8.18;1.70;;;18.80;99.90;;;;;;6244553;22;20091;-80
2022/05/27 06:15:11;;;;;;;9.95;2.47;;;18.80;99.90;;;;;;6244581;23;20016;-79
2022/05/27 06:17:36;;;;;;;9.07;1.67;;;18.60;99.90;;;;;;6243813;23;20019;-79
2022/05/27 06:20:03;;;;;;;5.90;2.00;;;18.50;99.90;;;;;;6243713;23;20016;-79
2022/05/27 06:22:29;;;;;;;15.07;2.15;;;18.60;99.90;;;;;;6244544;22;20047;-80
2022/05/27 06:24:55;;;;;;;10.82;1.92;;;18.80;99.90;;;;;;6244556;23;20361;-79
2022/05/27 06:27:20;;;;;;;9.55;2.35;;;18.90;99.90;;;;;;6244701;23;20095;-79
2022/05/27 06:35:17;;;;;;;12.00;2.40;;;18.90;99.90;;;;;;6245095;23;20024;-80
2022/05/27 06:37:42;;;;;;;12.77;2.15;;;18.90;99.90;;;;;;6263871;23;20008;-80
2022/05/27 06:40:09;;;;;;;10.80;1.98;;;19.00;99.90;;;;;;6268454;23;19996;-80
2022/05/27 06:42:37;;;;;;;11.25;2.17;;;19.10;99.90;;;;;;6260302;22;20058;-79
2022/05/27 06:45:03;;;;;;;10.45;2.28;;;19.00;99.90;;;;;;6245446;23;20015;-79
2022/05/27 06:47:29;;;;;;;9.15;1.73;;;19.30;99.90;;;;;;6244294;23;20016;-79
2022/05/27 06:49:54;;;;;;;7.65;1.95;;;19.30;99.90;;;;;;6244040;23;20083;-80
2022/05/27 06:52:20;;;;;;;14.40;2.20;;;19.20;99.90;;;;;;6243581;22;20048;-79
2022/05/27 06:54:46;;;;;;;12.32;2.35;;;19.10;99.90;;;;;;6243959;23;20020;-80
2022/05/27 06:57:12;;;;;;;9.48;2.63;;;19.10;99.90;;;;;;6243682;23;20040;-79
2022/05/27 06:59:37;;;;;;;7.93;2.10;;;19.20;99.90;;;;;;6245871;23;20043;-81
2022/05/27 07:02:04;;;;;;;7.65;1.83;;;19.30;99.90;;;;;;6247284;22;20457;-81
2022/05/27 07:04:30;;;;;;;16.67;2.30;;;19.40;99.90;;;;;;6251404;23;20484;-82
2022/05/27 07:06:57;;;;;;;6.78;1.85;;;19.50;99.90;;;;;;6249838;23;20016;-82
2022/05/27 07:09:23;;;;;;;9.55;2.00;;;19.50;99.90;;;;;;6249164;22;20008;-82
2022/05/27 07:11:53;;;;;;;14.02;2.70;;;19.50;99.90;;;;;;6248740;22;20172;-81
2022/05/27 07:14:19;;;;;;;13.30;2.17;;;19.60;99.90;;;;;;6250406;22;20016;-82
2022/05/27 07:16:46;;;;;;;11.38;2.33;;;19.80;99.90;;;;;;6247242;23;20449;-81
2022/05/27 07:19:12;;;;;;;10.07;2.05;;;19.70;99.90;;;;;;6248841;22;20167;-82
2022/05/27 07:21:39;;;;;;;6.28;1.73;;;19.10;99.90;;;;;;6247784;22;20058;-81
2022/05/27 07:24:09;;;;;;;9.88;2.20;;;18.60;99.90;;;;;;6248227;23;20012;-80
2022/05/27 07:26:37;;;;;;;8.13;1.88;;;18.30;99.90;;;;;;6222338;23;20016;-80
2022/05/27 07:29:03;;;;;;;8.75;2.28;;;18.30;99.90;;;;;;6247406;23;20056;-81
2022/05/27 07:31:29;;;;;;;11.75;2.40;;;18.20;99.90;;;;;;6221475;22;20417;-80
2022/05/27 07:33:56;;;;;;;14.65;2.20;;;17.80;99.90;;;;;;6246476;23;20043;-80
2022/05/27 07:36:22;;;;;;;8.07;2.30;;;17.50;99.90;;;;;;6221940;23;20015;-80
2022/05/27 07:38:51;;;;;;;9.00;1.98;;;17.50;99.90;;;;;;6221375;23;20012;-80
2022/05/27 07:41:17;;;;;;;8.85;1.60;;;17.90;99.90;;;;;;6245955;23;20004;-81
2022/05/27 07:43:43;;;;;;;15.85;2.28;;;18.40;99.90;;;;;;6220868;23;20016;-81
2022/05/27 07:46:09;;;;;;;9.00;1.90;;;18.70;99.90;;;;;;6245565;23;20350;-80
2022/05/27 07:48:34;;;;;;;8.50;2.08;;;19.00;99.90;;;;;;6245768;23;20100;-80
2022/05/27 07:51:00;;;;;;;10.27;1.98;;;19.10;99.90;;;;;;6244909;23;20026;-80
2022/05/27 07:53:25;;;;;;;12.05;2.33;;;19.20;99.90;;;;;;6244964;22;20071;-80
2022/05/27 07:55:51;;;;;;;8.77;2.58;;;19.00;99.90;;;;;;6245650;23;20023;-81
2022/05/27 07:58:16;;;;;;;10.50;2.08;;;18.60;99.90;;;;;;6246049;23;20012;-81
2022/05/27 08:00:42;;;;;;;10.70;2.15;;;18.10;99.90;;;;;;6245763;23;20020;-81
2022/05/27 08:03:07;;;;;;;11.55;2.13;;;17.70;99.90;;;;;;6245303;22;20047;-81
2022/05/27 08:05:35;;;;;;;9.05;2.08;;;17.20;99.90;;;;;;6245061;23;20012;-81
2022/05/27 08:08:02;;;;;;;10.35;1.90;;;17.10;99.90;;;;;;6246971;23;20099;-81
2022/05/27 08:10:31;;;;;;;12.93;2.58;;;17.40;99.90;;;;;;6245800;23;20054;-81
2022/05/27 08:12:57;;;;;;;7.72;1.90;;;17.70;99.90;;;;;;6246649;22;20008;-80
2022/05/27 08:15:23;;;;;;;7.30;1.92;;;17.40;99.90;;;;;;6245717;23;20012;-81
2022/05/27 08:17:49;;;;;;;9.38;2.30;;;17.30;99.90;;;;;;6242960;23;20108;-77
2022/05/27 08:20:18;;;;;;;6.72;2.05;;;17.40;99.90;;;;;;6241605;23;20460;-76
2022/05/27 08:22:45;;;;;;;13.23;4.50;;;17.70;99.90;;;;;;6241757;22;20016;-76
2022/05/27 08:25:10;;;;;;;13.93;2.33;;;17.90;99.90;;;;;;6241846;23;20020;-76
2022/05/27 08:27:36;;;;;;;8.32;1.90;;;17.90;99.90;;;;;;6241844;23;20506;-75
2022/05/27 08:30:03;;;;;;;8.38;1.58;;;18.00;99.90;;;;;;6241518;23;20016;-75
2022/05/27 08:32:31;;;;;;;7.07;1.48;;;18.00;99.90;;;;;;6241866;22;20087;-76
2022/05/27 08:40:47;;;;;;;11.07;2.22;;;18.50;99.90;;;;;;6245073;23;20016;-80
2022/05/27 08:44:01;;;;;;;6.18;1.85;;;18.30;99.80;;;;;;6218452;23;20023;-81
2022/05/27 08:46:38;;;;;;;4.78;1.70;;;17.90;93.10;;;;;;6245051;23;20027;-81
2022/05/27 08:49:14;;;;;;;12.35;2.17;;;18.10;97.80;;;;;;6243473;23;20025;-79
2022/05/27 08:51:49;;;;;;;11.07;2.38;;;18.10;97.00;;;;;;6217550;22;20058;-80
2022/05/27 08:54:47;;;;;;;13.75;2.97;;;18.10;95.00;;;;;;6245304;22;20022;-81
2022/05/27 09:00:04;;;;;;;13.55;1.80;;;18.60;99.90;;;;;;6242567;23;20020;-79
2022/05/27 09:02:55;;;;;;;6.32;1.77;;;18.60;96.80;;;;;;6242670;22;20358;-80
2022/05/27 09:05:50;;;;;;;9.93;2.00;;;18.50;96.50;;;;;;6243156;23;20012;-81
2022/05/27 09:08:20;;;;;;;7.25;1.30;;;18.30;93.50;;;;;;6242436;23;20434;-80
2022/05/27 09:10:54;;;;;;;7.50;1.48;;;18.50;99.90;;;;;;6242465;23;20016;-80
2022/05/27 09:13:24;;;;;;;9.02;1.58;;;18.60;98.50;;;;;;6243076;22;20345;-80
2022/05/27 09:16:02;;;;;;;9.40;2.00;;;18.50;97.10;;;;;;6243039;23;20012;-79
2022/05/27 09:18:58;;;;;;;9.40;1.85;;;18.40;98.10;;;;;;6218202;23;20331;-80
2022/05/27 09:21:49;;;;;;;4.03;1.38;;;18.10;95.40;;;;;;6242882;22;20456;-80
2022/05/27 09:24:41;;;;;;;11.13;1.77;;;18.00;97.00;;;;;;6243104;23;20401;-80
2022/05/27 09:27:11;;;;;;;7.82;1.50;;;17.90;98.40;;;;;;6243043;23;20016;-80
2022/05/27 09:29:58;;;;;;;12.10;2.03;;;18.20;99.50;;;;;;6243404;23;20073;-80
2022/05/27 09:32:46;;;;;;;6.47;1.42;;;18.40;99.20;;;;;;6217903;23;20334;-80
2022/05/27 09:35:25;;;;;;;3.38;1.52;;;18.90;99.90;;;;;;6244129;23;20349;-80
2022/05/27 09:37:54;;;;;;;5.65;1.40;;;19.20;95.00;;;;;;6243606;23;20012;-80
2022/05/27 09:40:30;;;;;;;6.63;1.38;;;19.10;96.20;;;;;;6243054;23;20099;-80
2022/05/27 09:43:02;;;;;;;6.97;1.38;;;19.00;94.00;;;;;;6243425;22;20079;-80
2022/05/27 09:45:29;;;;;;;4.57;1.33;;;18.80;95.00;;;;;;6218515;23;20020;-81
2022/05/27 09:48:00;;;;;;;6.65;1.27;;;18.60;95.90;;;;;;6245731;23;20066;-81
2022/05/27 09:50:38;;;;;;;6.97;1.27;;;18.50;95.20;;;;;;6219023;23;20087;-80
2022/05/27 09:53:05;;;;;;;9.43;1.58;;;18.20;94.20;;;;;;6217801;23;20012;-80
2022/05/27 09:55:44;;;;;;;5.70;1.58;;;18.00;95.30;;;;;;6243365;23;20087;-81
2022/05/27 09:58:09;;;;;;;3.05;0.90;;;17.80;96.10;;;;;;6219558;23;20091;-82
2022/05/27 10:00:48;;;;;;;7.63;1.48;;;17.90;96.80;;;;;;6244597;23;20113;-81
2022/05/27 10:03:33;;;;;;;7.35;1.77;;;18.10;94.40;;;;;;6244277;22;20012;-81
2022/05/27 10:06:15;;;;;;;4.82;1.15;;;18.50;97.10;;;;;;6219447;23;20016;-80
2022/05/27 10:08:57;;;;;;;7.45;1.73;;;18.80;95.40;;;;;;6218906;23;20457;-80
2022/05/27 10:11:29;;;;;;;6.15;1.33;;;18.90;92.70;;;;;;6221644;22;20020;-82
2022/05/27 10:14:15;;;;;;;9.30;2.05;;;19.10;93.40;;;;;;6249050;23;20016;-81
2022/05/27 10:16:43;;;;;;;8.00;1.60;;;19.00;86.30;;;;;;6246390;23;20015;-83
2022/05/27 10:19:26;;;;;;;7.00;1.60;;;18.90;94.60;;;;;;6222137;23;20019;-83
2022/05/27 10:22:02;;;;;;;8.75;1.67;;;19.10;93.30;;;;;;6251878;23;20012;-83
2022/05/27 10:24:30;;;;;;;10.98;1.88;;;19.10;96.00;;;;;;6250663;23;20020;-82
2022/05/27 10:27:10;;;;;;;7.32;1.70;;;18.90;95.70;;;;;;6251207;22;20012;-82
2022/05/27 10:29:58;;;;;;;4.40;1.35;;;18.80;93.00;;;;;;6248184;22;20509;-83
2022/05/27 10:32:40;;;;;;;8.25;1.60;;;18.70;91.70;;;;;;6222132;23;20552;-83
2022/05/27 10:35:32;;;;;;;7.07;1.20;;;18.60;93.00;;;;;;6222059;23;20016;-83
2022/05/27 10:38:28;;;;;;;8.07;1.85;;;18.40;91.90;;;;;;6222765;23;20353;-82
2022/05/27 10:41:16;;;;;;;7.45;2.15;;;18.10;90.40;;;;;;6270973;22;20056;-81
2022/05/27 10:44:10;;;;;;;5.75;1.48;;;17.90;94.80;;;;;;6246479;22;20079;-82
2022/05/27 10:46:54;;;;;;;11.50;1.90;;;17.60;95.70;;;;;;6248498;23;20020;-82
2022/05/27 10:49:46;;;;;;;8.20;1.70;;;17.60;96.30;;;;;;6245087;22;20004;-84
2022/05/27 10:52:48;;;;;;;9.27;1.45;;;17.70;95.70;;;;;;6243293;22;20066;-83
2022/05/27 10:55:25;;;;;;;4.85;1.40;;;17.70;97.60;;;;;;6218253;23;20020;-82
2022/05/27 11:04:26;;;;;;;9.35;1.50;;;18.40;96.20;;;;;;6244995;23;20022;-80
2022/05/27 11:07:17;;;;;;;6.80;1.45;;;18.60;88.60;;;;;;6246128;23;20023;-82
2022/05/27 11:10:08;;;;;;;7.47;1.42;;;18.80;86.60;;;;;;6245512;22;20082;-83
2022/05/27 11:16:11;;;;;;;4.53;1.05;;;18.10;92.50;;;;;;6247848;23;20404;-80
2022/05/27 11:18:43;;;;;;;7.28;1.42;;;17.60;93.20;;;;;;6251830;22;20008;-81
2022/05/27 11:21:27;;;;;;;9.00;1.50;;;17.40;95.80;;;;;;6252590;22;20020;-82
2022/05/27 11:24:15;;;;;;;7.88;1.23;;;17.60;95.90;;;;;;6248921;23;20016;-82
2022/05/27 11:27:06;;;;;;;8.68;1.60;;;18.00;99.40;;;;;;6254297;22;20023;-82
2022/05/27 11:29:46;;;;;;;7.43;1.35;;;18.30;97.80;;;;;;6251998;23;20051;-81
2022/05/27 11:32:38;;;;;;;5.43;1.88;;;18.40;93.80;;;;;;6224785;23;20020;-82
2022/05/27 11:35:28;;;;;;;5.88;1.67;;;18.40;92.30;;;;;;6249539;23;20012;-81
2022/05/27 11:38:25;;;;;;;5.78;1.17;;;18.60;93.00;;;;;;6224107;23;20038;-82
2022/05/27 11:41:19;;;;;;;8.77;1.90;;;18.80;94.10;;;;;;6227081;23;20060;-81
2022/05/27 11:43:46;;;;;;;14.70;2.25;;;18.90;93.60;;;;;;6224343;23;20073;-81
2022/05/27 11:46:41;;;;;;;6.82;1.73;;;19.00;93.00;;;;;;6225247;23;20146;-80
2022/05/27 11:49:19;;;;;;;10.85;1.83;;;19.00;88.40;;;;;;6252122;23;20025;-80
2022/05/27 11:52:08;;;;;;;8.10;1.90;;;19.00;93.80;;;;;;6228338;23;20027;-81
2022/05/27 11:54:58;;;;;;;4.90;1.17;;;18.90;92.70;;;;;;6228075;23;20346;-80
2022/05/27 11:57:44;;;;;;;13.50;2.15;;;18.70;90.70;;;;;;6249955;22;20024;-81
2022/05/27 12:00:21;;;;;;;11.82;1.95;;;18.40;92.20;;;;;;6246953;22;20483;-80
2022/05/27 12:03:02;;;;;;;8.15;1.95;;;18.50;91.70;;;;;;6224015;23;20042;-81
2022/05/27 12:05:36;;;;;;;7.63;1.00;;;18.70;91.60;;;;;;6248372;23;20626;-81
2022/05/27 12:08:05;;;;;;;7.65;1.67;;;18.70;91.90;;;;;;6225388;23;20016;-82
2022/05/27 12:10:34;;;;;;;7.30;1.60;;;18.60;91.50;;;;;;6248716;23;20012;-81
2022/05/27 12:13:14;;;;;;;6.50;1.70;;;18.70;93.10;;;;;;6218196;23;20044;-82
2022/05/27 12:15:49;;;;;;;5.07;1.60;;;18.80;93.80;;;;;;6244206;23;20012;-82
2022/05/27 12:18:28;;;;;;;13.63;1.95;;;18.70;91.50;;;;;;6245794;22;20012;-82
2022/05/27 12:20:56;;;;;;;4.35;1.45;;;18.40;90.40;;;;;;6245052;22;20057;-80
2022/05/27 12:23:27;;;;;;;8.27;1.75;;;18.10;93.60;;;;;;6243019;22;20020;-80
2022/05/27 12:25:58;;;;;;;7.20;1.65;;;18.10;94.20;;;;;;6244394;23;20016;-80
2022/05/27 12:28:30;;;;;;;8.13;1.70;;;18.20;95.40;;;;;;6243521;23;20044;-79
2022/05/27 12:30:59;;;;;;;11.65;2.03;;;18.40;93.40;;;;;;6244225;22;20083;-80
2022/05/27 12:33:27;;;;;;;8.55;1.90;;;18.10;94.50;;;;;;6242802;22;20013;-81
2022/05/27 12:36:18;;;;;;;5.55;1.52;;;18.00;96.10;;;;;;6243901;23;20380;-80
2022/05/27 12:38:47;;;;;;;9.48;1.52;;;18.00;96.20;;;;;;6242678;23;20015;-81
2022/05/27 12:41:18;;;;;;;12.73;2.55;;;18.00;96.20;;;;;;6242169;23;20012;-81
2022/05/27 12:43:58;;;;;;;6.63;1.55;;;17.80;96.40;;;;;;6241163;23;20020;-78
2022/05/27 12:46:41;;;;;;;11.93;2.00;;;17.60;98.00;;;;;;6240952;23;20023;-77
2022/05/27 12:49:37;;;;;;;8.50;2.05;;;17.50;98.30;;;;;;6242020;23;20035;-77
2022/05/27 12:52:06;;;;;;;8.15;1.77;;;17.30;99.20;;;;;;6241707;22;20020;-75
2022/05/27 12:54:45;;;;;;;8.90;1.88;;;17.10;98.90;;;;;;6242025;23;20054;-76
2022/05/27 13:03:33;;;;;;;;;;;17.00;99.90;;;;;;6219256;23;20063;-75
2022/05/27 13:06:20;;;;;;;11.60;2.10;;;16.80;99.90;;;;;;6186487;23;19919;-76
2022/05/27 13:09:05;;;;;;;8.05;1.80;;;16.70;99.90;;;;;;6186179;23;20016;-75
2022/05/27 13:11:34;;;;;;;9.98;2.08;;;16.70;99.90;;;;;;6212711;23;20450;-75
2022/05/27 13:14:02;;;;;;;8.32;2.00;;;16.70;99.90;;;;;;6186393;23;20401;-75
2022/05/27 13:16:44;;;;;;;12.73;2.33;;;16.80;99.90;;;;;;6186182;23;20378;-76
2022/05/27 13:19:30;;;;;;;9.05;1.92;;;16.90;99.90;;;;;;6186102;23;20012;-76
2022/05/27 13:21:59;;;;;;;10.55;1.75;;;17.00;99.90;;;;;;6186220;23;20024;-77
2022/05/27 13:24:30;;;;;;;6.82;2.28;;;17.00;99.90;;;;;;6185946;23;20004;-76
2022/05/27 13:27:19;;;;;;;10.25;2.20;;;17.10;99.90;;;;;;6185667;23;20009;-77
2022/05/27 13:29:54;;;;;;;7.95;1.58;;;17.20;99.90;;;;;;6210565;23;20016;-77
2022/05/27 13:32:26;;;;;;;2.50;1.13;;;17.20;99.90;;;;;;6185828;23;20023;-76
2022/05/27 13:35:00;;;;;;;10.48;2.28;;;17.00;99.90;;;;;;6185623;23;20016;-77
2022/05/27 13:37:29;;;;;;;10.35;2.22;;;16.80;99.90;;;;;;6185001;23;20091;-76
2022/05/27 13:39:58;;;;;;;8.25;1.50;;;16.80;99.90;;;;;;6185786;23;20013;-76
2022/05/27 13:42:36;;;;;;;8.70;2.03;;;16.90;99.90;;;;;;6185984;23;20078;-76
2022/05/27 13:45:21;;;;;;;9.05;1.77;;;17.10;99.90;;;;;;6186235;23;20394;-77
2022/05/27 13:48:05;;;;;;;6.75;2.10;;;17.40;99.90;;;;;;6185903;23;20024;-78
2022/05/27 13:50:35;;;;;;;11.07;2.00;;;17.90;99.90;;;;;;6185450;23;20154;-76